sensor_id;sensor_type;location;lat;lon;timestamp;P1;durP1;ratioP1;P2;durP2;ratioP2
60243;SDS011;46106;51.468;5.814;2023-03-08T00:00:03;70.97;;;22.55;;
60243;SDS011;46106;51.468;5.814;2023-03-08T00:02:31;73.00;;;23.40;;
60243;SDS011;46106;51.468;5.814;2023-03-08T00:04:56;66.78;;;22.33;;
60243;SDS011;46106;51.468;5.814;2023-03-08T00:07:22;71.97;;;23.80;;
60243;SDS011;46106;51.468;5.814;2023-03-08T00:09:48;64.35;;;23.55;;
60243;SDS011;46106;51.468;5.814;2023-03-08T00:12:13;74.55;;;24.85;;
60243;SDS011;46106;51.468;5.814;2023-03-08T00:14:39;78.78;;;25.75;;
60243;SDS011;46106;51.468;5.814;2023-03-08T00:17:04;83.88;;;26.67;;
60243;SDS011;46106;51.468;5.814;2023-03-08T00:19:30;73.25;;;25.83;;
60243;SDS011;46106;51.468;5.814;2023-03-08T00:21:56;62.20;;;22.88;;
60243;SDS011;46106;51.468;5.814;2023-03-08T00:24:22;68.30;;;25.77;;
60243;SDS011;46106;51.468;5.814;2023-03-08T00:26:48;73.78;;;24.40;;
60243;SDS011;46106;51.468;5.814;2023-03-08T00:29:13;73.82;;;25.38;;
60243;SDS011;46106;51.468;5.814;2023-03-08T00:31:38;81.80;;;26.88;;
60243;SDS011;46106;51.468;5.814;2023-03-08T00:34:04;84.60;;;28.48;;
60243;SDS011;46106;51.468;5.814;2023-03-08T00:36:30;74.43;;;26.95;;
60243;SDS011;46106;51.468;5.814;2023-03-08T00:38:55;76.30;;;28.15;;
60243;SDS011;46106;51.468;5.814;2023-03-08T00:41:21;75.72;;;26.38;;
60243;SDS011;46106;51.468;5.814;2023-03-08T00:43:47;93.60;;;26.92;;
60243;SDS011;46106;51.468;5.814;2023-03-08T00:46:13;73.20;;;25.42;;
60243;SDS011;46106;51.468;5.814;2023-03-08T00:48:39;86.97;;;29.98;;
60243;SDS011;46106;51.468;5.814;2023-03-08T00:51:07;88.25;;;28.92;;
60243;SDS011;46106;51.468;5.814;2023-03-08T00:53:36;81.00;;;28.40;;
60243;SDS011;46106;51.468;5.814;2023-03-08T00:56:01;77.25;;;28.80;;
60243;SDS011;46106;51.468;5.814;2023-03-08T00:58:27;90.47;;;28.70;;
60243;SDS011;46106;51.468;5.814;2023-03-08T01:00:54;89.93;;;28.50;;
60243;SDS011;46106;51.468;5.814;2023-03-08T01:03:20;76.60;;;27.48;;
60243;SDS011;46106;51.468;5.814;2023-03-08T01:05:47;82.45;;;29.92;;
60243;SDS011;46106;51.468;5.814;2023-03-08T01:08:14;79.15;;;27.00;;
60243;SDS011;46106;51.468;5.814;2023-03-08T01:10:48;76.95;;;28.58;;
60243;SDS011;46106;51.468;5.814;2023-03-08T01:13:22;78.68;;;27.27;;
60243;SDS011;46106;51.468;5.814;2023-03-08T01:15:48;86.90;;;29.90;;
60243;SDS011;46106;51.468;5.814;2023-03-08T01:18:14;93.40;;;30.58;;
60243;SDS011;46106;51.468;5.814;2023-03-08T01:20:39;94.50;;;32.13;;
60243;SDS011;46106;51.468;5.814;2023-03-08T01:23:05;89.38;;;31.17;;
60243;SDS011;46106;51.468;5.814;2023-03-08T01:25:31;94.68;;;30.90;;
60243;SDS011;46106;51.468;5.814;2023-03-08T01:27:56;100.35;;;30.85;;
60243;SDS011;46106;51.468;5.814;2023-03-08T01:30:22;98.13;;;30.38;;
60243;SDS011;46106;51.468;5.814;2023-03-08T01:32:47;88.90;;;28.58;;
60243;SDS011;46106;51.468;5.814;2023-03-08T01:35:13;98.35;;;29.98;;
60243;SDS011;46106;51.468;5.814;2023-03-08T01:37:39;92.70;;;30.08;;
60243;SDS011;46106;51.468;5.814;2023-03-08T01:40:04;104.63;;;31.83;;
60243;SDS011;46106;51.468;5.814;2023-03-08T01:42:30;108.35;;;31.80;;
60243;SDS011;46106;51.468;5.814;2023-03-08T01:44:57;112.63;;;30.00;;
60243;SDS011;46106;51.468;5.814;2023-03-08T01:47:30;93.28;;;29.90;;
60243;SDS011;46106;51.468;5.814;2023-03-08T01:49:58;108.43;;;33.70;;
60243;SDS011;46106;51.468;5.814;2023-03-08T01:52:40;112.22;;;32.50;;
60243;SDS011;46106;51.468;5.814;2023-03-08T01:57:40;112.47;;;33.60;;
60243;SDS011;46106;51.468;5.814;2023-03-08T02:00:14;110.63;;;33.20;;
60243;SDS011;46106;51.468;5.814;2023-03-08T02:02:43;111.45;;;35.03;;
60243;SDS011;46106;51.468;5.814;2023-03-08T02:05:14;106.95;;;33.05;;
60243;SDS011;46106;51.468;5.814;2023-03-08T02:07:40;107.00;;;33.20;;
60243;SDS011;46106;51.468;5.814;2023-03-08T02:10:06;106.05;;;33.17;;
60243;SDS011;46106;51.468;5.814;2023-03-08T02:12:33;113.82;;;34.28;;
60243;SDS011;46106;51.468;5.814;2023-03-08T02:15:00;129.68;;;35.20;;
60243;SDS011;46106;51.468;5.814;2023-03-08T02:17:29;111.25;;;33.63;;
60243;SDS011;46106;51.468;5.814;2023-03-08T02:19:56;118.95;;;34.63;;
60243;SDS011;46106;51.468;5.814;2023-03-08T02:22:30;122.78;;;35.97;;
60243;SDS011;46106;51.468;5.814;2023-03-08T02:24:56;107.35;;;34.33;;
60243;SDS011;46106;51.468;5.814;2023-03-08T02:27:25;116.53;;;34.72;;
60243;SDS011;46106;51.468;5.814;2023-03-08T02:29:51;122.75;;;35.30;;
60243;SDS011;46106;51.468;5.814;2023-03-08T02:32:16;129.32;;;37.03;;
60243;SDS011;46106;51.468;5.814;2023-03-08T02:34:42;106.93;;;32.58;;
60243;SDS011;46106;51.468;5.814;2023-03-08T02:37:08;116.32;;;34.25;;
60243;SDS011;46106;51.468;5.814;2023-03-08T02:39:33;121.32;;;34.10;;
60243;SDS011;46106;51.468;5.814;2023-03-08T02:41:59;111.78;;;34.25;;
60243;SDS011;46106;51.468;5.814;2023-03-08T02:44:24;119.20;;;34.58;;
60243;SDS011;46106;51.468;5.814;2023-03-08T02:46:50;117.95;;;34.25;;
60243;SDS011;46106;51.468;5.814;2023-03-08T02:49:16;107.97;;;33.50;;
60243;SDS011;46106;51.468;5.814;2023-03-08T02:51:42;135.45;;;37.30;;
60243;SDS011;46106;51.468;5.814;2023-03-08T02:54:07;128.30;;;33.58;;
60243;SDS011;46106;51.468;5.814;2023-03-08T02:56:33;124.72;;;33.00;;
60243;SDS011;46106;51.468;5.814;2023-03-08T02:58:58;118.55;;;32.45;;
60243;SDS011;46106;51.468;5.814;2023-03-08T03:01:27;113.57;;;34.00;;
60243;SDS011;46106;51.468;5.814;2023-03-08T03:03:53;124.15;;;34.30;;
60243;SDS011;46106;51.468;5.814;2023-03-08T03:06:19;121.47;;;32.70;;
60243;SDS011;46106;51.468;5.814;2023-03-08T03:08:46;117.55;;;31.40;;
60243;SDS011;46106;51.468;5.814;2023-03-08T03:11:12;124.70;;;33.70;;
60243;SDS011;46106;51.468;5.814;2023-03-08T03:13:40;110.78;;;33.55;;
60243;SDS011;46106;51.468;5.814;2023-03-08T03:16:09;113.15;;;32.60;;
60243;SDS011;46106;51.468;5.814;2023-03-08T03:18:36;130.27;;;34.20;;
60243;SDS011;46106;51.468;5.814;2023-03-08T03:21:05;134.48;;;34.17;;
60243;SDS011;46106;51.468;5.814;2023-03-08T03:23:34;109.70;;;31.88;;
60243;SDS011;46106;51.468;5.814;2023-03-08T03:26:08;130.57;;;31.67;;
60243;SDS011;46106;51.468;5.814;2023-03-08T03:28:36;125.00;;;32.38;;
60243;SDS011;46106;51.468;5.814;2023-03-08T03:31:06;121.80;;;32.53;;
60243;SDS011;46106;51.468;5.814;2023-03-08T03:33:37;133.90;;;32.22;;
60243;SDS011;46106;51.468;5.814;2023-03-08T03:36:03;131.30;;;33.25;;
60243;SDS011;46106;51.468;5.814;2023-03-08T03:38:29;138.27;;;33.38;;
60243;SDS011;46106;51.468;5.814;2023-03-08T03:41:01;126.07;;;33.80;;
60243;SDS011;46106;51.468;5.814;2023-03-08T03:43:28;125.38;;;34.67;;
60243;SDS011;46106;51.468;5.814;2023-03-08T03:45:54;118.85;;;32.83;;
60243;SDS011;46106;51.468;5.814;2023-03-08T03:48:24;124.47;;;32.58;;
60243;SDS011;46106;51.468;5.814;2023-03-08T03:50:57;123.05;;;31.98;;
60243;SDS011;46106;51.468;5.814;2023-03-08T03:53:25;117.85;;;31.10;;
60243;SDS011;46106;51.468;5.814;2023-03-08T03:55:52;123.75;;;32.35;;
60243;SDS011;46106;51.468;5.814;2023-03-08T03:58:18;110.95;;;32.30;;
60243;SDS011;46106;51.468;5.814;2023-03-08T04:00:43;126.72;;;35.10;;
60243;SDS011;46106;51.468;5.814;2023-03-08T04:03:09;130.10;;;33.15;;
60243;SDS011;46106;51.468;5.814;2023-03-08T04:05:34;119.50;;;31.80;;
60243;SDS011;46106;51.468;5.814;2023-03-08T04:08:00;109.65;;;30.40;;
60243;SDS011;46106;51.468;5.814;2023-03-08T04:10:25;130.00;;;30.95;;
60243;SDS011;46106;51.468;5.814;2023-03-08T04:12:51;119.75;;;30.60;;
60243;SDS011;46106;51.468;5.814;2023-03-08T04:15:17;115.25;;;31.98;;
60243;SDS011;46106;51.468;5.814;2023-03-08T04:17:42;110.55;;;29.88;;
60243;SDS011;46106;51.468;5.814;2023-03-08T04:20:08;112.13;;;29.13;;
60243;SDS011;46106;51.468;5.814;2023-03-08T04:22:34;115.53;;;29.20;;
60243;SDS011;46106;51.468;5.814;2023-03-08T04:24:59;120.53;;;30.55;;
60243;SDS011;46106;51.468;5.814;2023-03-08T04:27:25;110.35;;;28.73;;
60243;SDS011;46106;51.468;5.814;2023-03-08T04:29:51;93.63;;;25.67;;
60243;SDS011;46106;51.468;5.814;2023-03-08T04:32:16;123.80;;;30.15;;
60243;SDS011;46106;51.468;5.814;2023-03-08T04:34:42;99.50;;;26.80;;
60243;SDS011;46106;51.468;5.814;2023-03-08T04:37:08;112.82;;;28.58;;
60243;SDS011;46106;51.468;5.814;2023-03-08T04:39:35;99.95;;;26.83;;
60243;SDS011;46106;51.468;5.814;2023-03-08T04:42:00;116.45;;;29.08;;
60243;SDS011;46106;51.468;5.814;2023-03-08T04:44:29;125.78;;;29.05;;
60243;SDS011;46106;51.468;5.814;2023-03-08T04:46:54;137.13;;;31.67;;
60243;SDS011;46106;51.468;5.814;2023-03-08T04:49:20;126.82;;;31.95;;
60243;SDS011;46106;51.468;5.814;2023-03-08T04:51:46;122.80;;;31.10;;
60243;SDS011;46106;51.468;5.814;2023-03-08T04:54:11;125.07;;;32.08;;
60243;SDS011;46106;51.468;5.814;2023-03-08T04:56:37;125.43;;;33.67;;
60243;SDS011;46106;51.468;5.814;2023-03-08T04:59:02;126.97;;;30.75;;
60243;SDS011;46106;51.468;5.814;2023-03-08T05:01:28;142.63;;;33.60;;
60243;SDS011;46106;51.468;5.814;2023-03-08T05:03:54;138.48;;;34.17;;
60243;SDS011;46106;51.468;5.814;2023-03-08T05:06:21;138.70;;;34.47;;
60243;SDS011;46106;51.468;5.814;2023-03-08T05:08:47;127.18;;;35.03;;
60243;SDS011;46106;51.468;5.814;2023-03-08T05:11:17;129.13;;;31.80;;
60243;SDS011;46106;51.468;5.814;2023-03-08T05:13:44;158.23;;;36.85;;
60243;SDS011;46106;51.468;5.814;2023-03-08T05:16:10;153.30;;;36.20;;
60243;SDS011;46106;51.468;5.814;2023-03-08T05:18:36;155.57;;;39.17;;
60243;SDS011;46106;51.468;5.814;2023-03-08T05:21:05;154.65;;;41.78;;
60243;SDS011;46106;51.468;5.814;2023-03-08T05:23:34;140.63;;;37.70;;
60243;SDS011;46106;51.468;5.814;2023-03-08T05:26:00;145.57;;;40.03;;
60243;SDS011;46106;51.468;5.814;2023-03-08T05:28:29;159.32;;;40.08;;
60243;SDS011;46106;51.468;5.814;2023-03-08T05:31:04;163.98;;;41.17;;
60243;SDS011;46106;51.468;5.814;2023-03-08T05:33:32;172.27;;;41.88;;
60243;SDS011;46106;51.468;5.814;2023-03-08T05:35:58;153.70;;;40.45;;
60243;SDS011;46106;51.468;5.814;2023-03-08T05:38:27;136.13;;;36.05;;
60243;SDS011;46106;51.468;5.814;2023-03-08T05:40:52;167.88;;;41.17;;
60243;SDS011;46106;51.468;5.814;2023-03-08T05:43:18;168.10;;;42.75;;
60243;SDS011;46106;51.468;5.814;2023-03-08T05:46:09;139.52;;;37.60;;
60243;SDS011;46106;51.468;5.814;2023-03-08T05:48:34;139.27;;;37.67;;
60243;SDS011;46106;51.468;5.814;2023-03-08T05:51:11;147.25;;;38.08;;
60243;SDS011;46106;51.468;5.814;2023-03-08T05:53:39;128.88;;;33.72;;
60243;SDS011;46106;51.468;5.814;2023-03-08T05:56:09;116.50;;;31.38;;
60243;SDS011;46106;51.468;5.814;2023-03-08T05:58:36;126.57;;;31.55;;
60243;SDS011;46106;51.468;5.814;2023-03-08T06:01:11;124.93;;;29.90;;
60243;SDS011;46106;51.468;5.814;2023-03-08T06:03:44;118.07;;;29.75;;
60243;SDS011;46106;51.468;5.814;2023-03-08T06:06:11;98.88;;;23.77;;
60243;SDS011;46106;51.468;5.814;2023-03-08T06:08:37;78.88;;;20.52;;
60243;SDS011;46106;51.468;5.814;2023-03-08T06:11:03;62.97;;;19.58;;
60243;SDS011;46106;51.468;5.814;2023-03-08T06:13:29;86.85;;;20.30;;
60243;SDS011;46106;51.468;5.814;2023-03-08T06:15:55;70.57;;;20.15;;
60243;SDS011;46106;51.468;5.814;2023-03-08T06:18:23;80.85;;;20.60;;
60243;SDS011;46106;51.468;5.814;2023-03-08T06:23:22;92.63;;;25.90;;
60243;SDS011;46106;51.468;5.814;2023-03-08T06:25:47;67.88;;;19.40;;
60243;SDS011;46106;51.468;5.814;2023-03-08T06:28:13;70.75;;;20.70;;
60243;SDS011;46106;51.468;5.814;2023-03-08T06:30:38;89.47;;;21.27;;
60243;SDS011;46106;51.468;5.814;2023-03-08T06:33:04;94.57;;;23.63;;
60243;SDS011;46106;51.468;5.814;2023-03-08T06:35:29;75.53;;;23.30;;
60243;SDS011;46106;51.468;5.814;2023-03-08T06:37:55;85.32;;;21.17;;
60243;SDS011;46106;51.468;5.814;2023-03-08T06:40:20;82.25;;;22.30;;
60243;SDS011;46106;51.468;5.814;2023-03-08T06:42:45;100.45;;;23.85;;
60243;SDS011;46106;51.468;5.814;2023-03-08T06:45:11;83.40;;;19.83;;
60243;SDS011;46106;51.468;5.814;2023-03-08T06:47:37;76.30;;;21.25;;
60243;SDS011;46106;51.468;5.814;2023-03-08T06:50:02;86.68;;;20.77;;
60243;SDS011;46106;51.468;5.814;2023-03-08T06:52:28;80.18;;;20.85;;
60243;SDS011;46106;51.468;5.814;2023-03-08T06:54:59;65.97;;;19.15;;
60243;SDS011;46106;51.468;5.814;2023-03-08T06:57:25;76.97;;;21.25;;
60243;SDS011;46106;51.468;5.814;2023-03-08T06:59:51;81.28;;;20.48;;
60243;SDS011;46106;51.468;5.814;2023-03-08T07:02:16;88.93;;;23.02;;
60243;SDS011;46106;51.468;5.814;2023-03-08T07:04:44;96.82;;;23.17;;
60243;SDS011;46106;51.468;5.814;2023-03-08T07:07:10;89.28;;;23.17;;
60243;SDS011;46106;51.468;5.814;2023-03-08T07:09:35;92.15;;;24.33;;
60243;SDS011;46106;51.468;5.814;2023-03-08T07:12:03;97.25;;;23.75;;
60243;SDS011;46106;51.468;5.814;2023-03-08T07:14:29;107.35;;;24.90;;
60243;SDS011;46106;51.468;5.814;2023-03-08T07:16:56;90.28;;;21.83;;
60243;SDS011;46106;51.468;5.814;2023-03-08T07:19:21;86.88;;;23.08;;
60243;SDS011;46106;51.468;5.814;2023-03-08T07:21:47;92.43;;;20.95;;
60243;SDS011;46106;51.468;5.814;2023-03-08T07:24:12;84.68;;;21.90;;
60243;SDS011;46106;51.468;5.814;2023-03-08T07:26:38;66.43;;;18.02;;
60243;SDS011;46106;51.468;5.814;2023-03-08T07:29:04;78.30;;;18.65;;
60243;SDS011;46106;51.468;5.814;2023-03-08T07:31:29;69.25;;;18.77;;
60243;SDS011;46106;51.468;5.814;2023-03-08T07:33:56;63.30;;;17.65;;
60243;SDS011;46106;51.468;5.814;2023-03-08T07:36:22;66.43;;;16.58;;
60243;SDS011;46106;51.468;5.814;2023-03-08T07:38:47;70.30;;;18.95;;
60243;SDS011;46106;51.468;5.814;2023-03-08T07:41:13;75.38;;;18.92;;
60243;SDS011;46106;51.468;5.814;2023-03-08T07:43:38;79.55;;;20.15;;
60243;SDS011;46106;51.468;5.814;2023-03-08T07:46:04;107.90;;;21.88;;
60243;SDS011;46106;51.468;5.814;2023-03-08T07:48:30;85.68;;;22.35;;
60243;SDS011;46106;51.468;5.814;2023-03-08T07:51:06;86.55;;;21.80;;
60243;SDS011;46106;51.468;5.814;2023-03-08T07:53:34;74.25;;;21.25;;
60243;SDS011;46106;51.468;5.814;2023-03-08T07:56:04;105.75;;;23.50;;
60243;SDS011;46106;51.468;5.814;2023-03-08T07:58:30;95.85;;;22.45;;
60243;SDS011;46106;51.468;5.814;2023-03-08T08:00:55;112.10;;;25.80;;
60243;SDS011;46106;51.468;5.814;2023-03-08T08:03:21;99.43;;;23.23;;
60243;SDS011;46106;51.468;5.814;2023-03-08T08:05:47;107.97;;;25.83;;
60243;SDS011;46106;51.468;5.814;2023-03-08T08:08:12;93.40;;;22.38;;
60243;SDS011;46106;51.468;5.814;2023-03-08T08:10:38;89.40;;;23.13;;
60243;SDS011;46106;51.468;5.814;2023-03-08T08:13:04;91.13;;;22.00;;
60243;SDS011;46106;51.468;5.814;2023-03-08T08:15:30;77.90;;;21.05;;
60243;SDS011;46106;51.468;5.814;2023-03-08T08:17:57;91.95;;;23.98;;
60243;SDS011;46106;51.468;5.814;2023-03-08T08:20:22;84.63;;;20.58;;
60243;SDS011;46106;51.468;5.814;2023-03-08T08:22:49;94.78;;;21.60;;
60243;SDS011;46106;51.468;5.814;2023-03-08T08:25:17;86.05;;;23.70;;
60243;SDS011;46106;51.468;5.814;2023-03-08T08:27:43;94.82;;;22.42;;
60243;SDS011;46106;51.468;5.814;2023-03-08T08:30:11;95.50;;;25.00;;
60243;SDS011;46106;51.468;5.814;2023-03-08T08:32:37;93.68;;;23.95;;
60243;SDS011;46106;51.468;5.814;2023-03-08T08:35:03;110.68;;;26.17;;
60243;SDS011;46106;51.468;5.814;2023-03-08T08:37:30;83.15;;;22.90;;
60243;SDS011;46106;51.468;5.814;2023-03-08T08:39:57;85.95;;;22.58;;
60243;SDS011;46106;51.468;5.814;2023-03-08T08:42:23;102.38;;;24.48;;
60243;SDS011;46106;51.468;5.814;2023-03-08T08:44:52;91.93;;;23.50;;
60243;SDS011;46106;51.468;5.814;2023-03-08T08:47:18;87.68;;;23.27;;
60243;SDS011;46106;51.468;5.814;2023-03-08T08:49:43;96.90;;;23.80;;
60243;SDS011;46106;51.468;5.814;2023-03-08T08:52:09;65.90;;;19.58;;
60243;SDS011;46106;51.468;5.814;2023-03-08T08:54:34;73.13;;;18.40;;
60243;SDS011;46106;51.468;5.814;2023-03-08T08:57:03;76.43;;;19.02;;
60243;SDS011;46106;51.468;5.814;2023-03-08T08:59:29;66.22;;;18.50;;
60243;SDS011;46106;51.468;5.814;2023-03-08T09:01:55;62.17;;;17.15;;
60243;SDS011;46106;51.468;5.814;2023-03-08T09:04:20;65.05;;;17.58;;
60243;SDS011;46106;51.468;5.814;2023-03-08T09:06:46;68.68;;;18.38;;
60243;SDS011;46106;51.468;5.814;2023-03-08T09:09:11;63.97;;;19.42;;
60243;SDS011;46106;51.468;5.814;2023-03-08T09:11:37;77.43;;;22.45;;
60243;SDS011;46106;51.468;5.814;2023-03-08T09:14:02;86.72;;;24.60;;
60243;SDS011;46106;51.468;5.814;2023-03-08T09:16:31;78.32;;;22.23;;
60243;SDS011;46106;51.468;5.814;2023-03-08T09:18:58;83.50;;;22.88;;
60243;SDS011;46106;51.468;5.814;2023-03-08T09:21:25;80.32;;;22.75;;
60243;SDS011;46106;51.468;5.814;2023-03-08T09:23:52;95.97;;;24.48;;
60243;SDS011;46106;51.468;5.814;2023-03-08T09:26:18;95.82;;;25.77;;
60243;SDS011;46106;51.468;5.814;2023-03-08T09:28:46;94.68;;;26.88;;
60243;SDS011;46106;51.468;5.814;2023-03-08T09:31:13;88.07;;;27.05;;
60243;SDS011;46106;51.468;5.814;2023-03-08T09:33:47;84.90;;;28.08;;
60243;SDS011;46106;51.468;5.814;2023-03-08T09:36:15;100.70;;;28.70;;
60243;SDS011;46106;51.468;5.814;2023-03-08T09:38:42;84.28;;;26.73;;
60243;SDS011;46106;51.468;5.814;2023-03-08T09:49:15;96.22;;;28.63;;
60243;SDS011;46106;51.468;5.814;2023-03-08T09:51:46;118.05;;;32.70;;
60243;SDS011;46106;51.468;5.814;2023-03-08T09:54:17;117.63;;;32.45;;
60243;SDS011;46106;51.468;5.814;2023-03-08T09:56:48;101.78;;;30.27;;
60243;SDS011;46106;51.468;5.814;2023-03-08T10:02:23;91.95;;;31.50;;
60243;SDS011;46106;51.468;5.814;2023-03-08T10:05:11;96.30;;;29.73;;
60243;SDS011;46106;51.468;5.814;2023-03-08T10:21:10;106.05;;;29.48;;
60243;SDS011;46106;51.468;5.814;2023-03-08T10:23:41;104.05;;;30.65;;
60243;SDS011;46106;51.468;5.814;2023-03-08T10:26:10;97.47;;;30.77;;
60243;SDS011;46106;51.468;5.814;2023-03-08T10:28:37;114.07;;;34.35;;
60243;SDS011;46106;51.468;5.814;2023-03-08T10:31:18;113.03;;;34.03;;
60243;SDS011;46106;51.468;5.814;2023-03-08T10:33:51;106.93;;;33.38;;
60243;SDS011;46106;51.468;5.814;2023-03-08T10:36:23;94.70;;;31.52;;
60243;SDS011;46106;51.468;5.814;2023-03-08T10:41:47;93.22;;;33.50;;
60243;SDS011;46106;51.468;5.814;2023-03-08T10:44:28;106.55;;;35.72;;
60243;SDS011;46106;51.468;5.814;2023-03-08T10:47:01;110.50;;;36.42;;
60243;SDS011;46106;51.468;5.814;2023-03-08T10:49:40;105.90;;;37.03;;
60243;SDS011;46106;51.468;5.814;2023-03-08T10:52:13;93.68;;;29.02;;
60243;SDS011;46106;51.468;5.814;2023-03-08T10:55:01;56.40;;;20.10;;
60243;SDS011;46106;51.468;5.814;2023-03-08T10:57:38;59.42;;;25.27;;
60243;SDS011;46106;51.468;5.814;2023-03-08T11:00:29;73.95;;;22.42;;
60243;SDS011;46106;51.468;5.814;2023-03-08T11:03:29;68.03;;;24.73;;
60243;SDS011;46106;51.468;5.814;2023-03-08T11:05:52;55.78;;;21.63;;
60243;SDS011;46106;51.468;5.814;2023-03-08T11:08:21;56.42;;;23.05;;
60243;SDS011;46106;51.468;5.814;2023-03-08T11:10:58;68.75;;;24.55;;
60243;SDS011;46106;51.468;5.814;2023-03-08T11:13:26;82.50;;;25.35;;
60243;SDS011;46106;51.468;5.814;2023-03-08T11:21:35;79.90;;;26.83;;
60243;SDS011;46106;51.468;5.814;2023-03-08T11:26:47;75.18;;;26.20;;
60243;SDS011;46106;51.468;5.814;2023-03-08T11:29:29;71.53;;;26.63;;
60243;SDS011;46106;51.468;5.814;2023-03-08T11:35:30;66.97;;;23.58;;
60243;SDS011;46106;51.468;5.814;2023-03-08T11:38:11;70.05;;;26.33;;
60243;SDS011;46106;51.468;5.814;2023-03-08T11:49:48;54.67;;;19.35;;
60243;SDS011;46106;51.468;5.814;2023-03-08T11:52:24;47.88;;;15.20;;
60243;SDS011;46106;51.468;5.814;2023-03-08T11:55:04;62.03;;;18.65;;
60243;SDS011;46106;51.468;5.814;2023-03-08T11:57:45;42.97;;;14.82;;
60243;SDS011;46106;51.468;5.814;2023-03-08T12:00:27;40.50;;;15.20;;
60243;SDS011;46106;51.468;5.814;2023-03-08T12:02:58;35.70;;;13.23;;
60243;SDS011;46106;51.468;5.814;2023-03-08T12:05:33;42.63;;;14.23;;
60243;SDS011;46106;51.468;5.814;2023-03-08T12:08:14;39.30;;;15.10;;
60243;SDS011;46106;51.468;5.814;2023-03-08T12:13:49;48.05;;;16.60;;
60243;SDS011;46106;51.468;5.814;2023-03-08T12:16:26;42.58;;;17.10;;
60243;SDS011;46106;51.468;5.814;2023-03-08T12:22:07;54.58;;;18.88;;
60243;SDS011;46106;51.468;5.814;2023-03-08T12:24:53;55.55;;;18.83;;
60243;SDS011;46106;51.468;5.814;2023-03-08T12:27:31;65.40;;;21.33;;
60243;SDS011;46106;51.468;5.814;2023-03-08T12:33:13;62.20;;;22.25;;
60243;SDS011;46106;51.468;5.814;2023-03-08T12:35:51;64.30;;;20.85;;
60243;SDS011;46106;51.468;5.814;2023-03-08T12:40:47;60.55;;;21.27;;
60243;SDS011;46106;51.468;5.814;2023-03-08T12:45:46;70.95;;;23.85;;
60243;SDS011;46106;51.468;5.814;2023-03-08T12:59:00;58.03;;;21.95;;
60243;SDS011;46106;51.468;5.814;2023-03-08T13:02:33;64.70;;;21.83;;
60243;SDS011;46106;51.468;5.814;2023-03-08T13:05:00;69.82;;;21.92;;
60243;SDS011;46106;51.468;5.814;2023-03-08T13:10:32;62.58;;;22.27;;
60243;SDS011;46106;51.468;5.814;2023-03-08T13:13:03;70.47;;;24.23;;
60243;SDS011;46106;51.468;5.814;2023-03-08T13:15:30;66.68;;;23.00;;
60243;SDS011;46106;51.468;5.814;2023-03-08T13:28:57;70.22;;;23.42;;
60243;SDS011;46106;51.468;5.814;2023-03-08T13:31:27;77.78;;;24.40;;
60243;SDS011;46106;51.468;5.814;2023-03-08T13:33:55;71.68;;;23.75;;
60243;SDS011;46106;51.468;5.814;2023-03-08T13:36:22;69.55;;;25.58;;
60243;SDS011;46106;51.468;5.814;2023-03-08T13:38:57;75.18;;;25.30;;
60243;SDS011;46106;51.468;5.814;2023-03-08T13:44:03;82.43;;;25.20;;
60243;SDS011;46106;51.468;5.814;2023-03-08T13:46:31;88.10;;;27.15;;
60243;SDS011;46106;51.468;5.814;2023-03-08T13:48:56;91.18;;;28.50;;
60243;SDS011;46106;51.468;5.814;2023-03-08T13:51:22;88.88;;;27.02;;
60243;SDS011;46106;51.468;5.814;2023-03-08T13:53:51;87.43;;;27.50;;
60243;SDS011;46106;51.468;5.814;2023-03-08T13:56:24;106.93;;;30.80;;
60243;SDS011;46106;51.468;5.814;2023-03-08T13:58:52;86.03;;;28.73;;
60243;SDS011;46106;51.468;5.814;2023-03-08T14:01:24;88.50;;;28.58;;
60243;SDS011;46106;51.468;5.814;2023-03-08T14:03:51;88.25;;;28.27;;
60243;SDS011;46106;51.468;5.814;2023-03-08T14:06:26;96.38;;;28.20;;
60243;SDS011;46106;51.468;5.814;2023-03-08T14:08:54;92.82;;;27.73;;
60243;SDS011;46106;51.468;5.814;2023-03-08T14:14:32;98.20;;;29.40;;
60243;SDS011;46106;51.468;5.814;2023-03-08T14:17:00;110.28;;;31.33;;
60243;SDS011;46106;51.468;5.814;2023-03-08T14:19:28;99.32;;;30.17;;
60243;SDS011;46106;51.468;5.814;2023-03-08T14:22:00;94.95;;;29.55;;
60243;SDS011;46106;51.468;5.814;2023-03-08T14:24:29;101.80;;;30.67;;
60243;SDS011;46106;51.468;5.814;2023-03-08T14:26:58;97.60;;;29.42;;
60243;SDS011;46106;51.468;5.814;2023-03-08T14:29:58;98.88;;;28.73;;
60243;SDS011;46106;51.468;5.814;2023-03-08T14:32:30;93.65;;;27.05;;
60243;SDS011;46106;51.468;5.814;2023-03-08T14:35:13;94.47;;;27.20;;
60243;SDS011;46106;51.468;5.814;2023-03-08T14:37:42;89.30;;;27.42;;
60243;SDS011;46106;51.468;5.814;2023-03-08T14:47:57;84.80;;;27.85;;
60243;SDS011;46106;51.468;5.814;2023-03-08T14:50:33;86.53;;;28.05;;
60243;SDS011;46106;51.468;5.814;2023-03-08T14:52:59;88.50;;;28.58;;
60243;SDS011;46106;51.468;5.814;2023-03-08T14:55:30;110.05;;;32.67;;
60243;SDS011;46106;51.468;5.814;2023-03-08T14:58:08;90.18;;;28.98;;
60243;SDS011;46106;51.468;5.814;2023-03-08T15:00:46;96.28;;;30.30;;
60243;SDS011;46106;51.468;5.814;2023-03-08T15:03:14;85.30;;;27.65;;
60243;SDS011;46106;51.468;5.814;2023-03-08T15:05:40;98.85;;;30.05;;
60243;SDS011;46106;51.468;5.814;2023-03-08T15:08:05;94.68;;;25.25;;
60243;SDS011;46106;51.468;5.814;2023-03-08T15:10:36;70.20;;;24.98;;
60243;SDS011;46106;51.468;5.814;2023-03-08T15:13:08;80.15;;;25.45;;
60243;SDS011;46106;51.468;5.814;2023-03-08T15:15:37;83.63;;;26.60;;
60243;SDS011;46106;51.468;5.814;2023-03-08T15:18:02;88.40;;;27.48;;
60243;SDS011;46106;51.468;5.814;2023-03-08T15:20:28;92.85;;;26.52;;
60243;SDS011;46106;51.468;5.814;2023-03-08T15:22:54;79.25;;;25.08;;
60243;SDS011;46106;51.468;5.814;2023-03-08T15:25:25;71.93;;;24.88;;
60243;SDS011;46106;51.468;5.814;2023-03-08T15:27:50;87.75;;;24.95;;
60243;SDS011;46106;51.468;5.814;2023-03-08T15:30:18;74.43;;;22.92;;
60243;SDS011;46106;51.468;5.814;2023-03-08T15:32:53;86.93;;;24.85;;
60243;SDS011;46106;51.468;5.814;2023-03-08T15:35:19;92.82;;;25.55;;
60243;SDS011;46106;51.468;5.814;2023-03-08T15:37:46;102.90;;;29.30;;
60243;SDS011;46106;51.468;5.814;2023-03-08T15:40:18;96.50;;;27.55;;
60243;SDS011;46106;51.468;5.814;2023-03-08T15:42:45;98.47;;;26.42;;
60243;SDS011;46106;51.468;5.814;2023-03-08T15:45:12;96.28;;;26.52;;
60243;SDS011;46106;51.468;5.814;2023-03-08T15:47:38;103.57;;;28.50;;
60243;SDS011;46106;51.468;5.814;2023-03-08T15:50:05;112.93;;;27.17;;
60243;SDS011;46106;51.468;5.814;2023-03-08T15:52:37;112.07;;;27.52;;
60243;SDS011;46106;51.468;5.814;2023-03-08T15:55:02;122.60;;;31.60;;
60243;SDS011;46106;51.468;5.814;2023-03-08T15:57:28;116.20;;;30.80;;
60243;SDS011;46106;51.468;5.814;2023-03-08T15:59:53;120.80;;;30.27;;
60243;SDS011;46106;51.468;5.814;2023-03-08T16:02:19;104.40;;;27.85;;
60243;SDS011;46106;51.468;5.814;2023-03-08T16:04:45;111.47;;;29.83;;
60243;SDS011;46106;51.468;5.814;2023-03-08T16:07:17;110.70;;;32.95;;
60243;SDS011;46106;51.468;5.814;2023-03-08T16:09:43;111.60;;;31.48;;